Bay Minette, Alabama
Current Conditions -  °F | °C
As of 1:53 AM on Saturday 01 Nov 2014 (Local Time) from KBFM Reporting Station
Clear Clear  
Wind Chill: 51°   Ceiling: Unl
Heat Index: 51°   Visibility: 10mi
Dew Point: 34°   Wind: 22mph
Humidity: 52%   Direction: 340°NNW
Pressure: 30.18"   Gusts: 37mph
Location:  30.88°N, 87.77°W
Report Text: KBFM 010653Z AUTO 34019G32KT 10SM CLR 11/01 A3018 RMK AO2 PK WND 33032/0646 SLP218 T01060011
Loading
Personal Weather Stations






























Interactive Weather Map
Tropical Storm Tracking
New forecast layout! Learn more

10-Day Weather Forecast

Advertisements
Track Severe Weather on mobile